createdAt,value
2022-08-18T00:01:25.321Z,3.58
2022-08-18T00:03:56.642Z,3.55
2022-08-18T00:06:27.966Z,3.47
2022-08-18T00:08:56.079Z,2.75
2022-08-18T00:11:23.919Z,3.20
2022-08-18T00:13:52.859Z,3.10
2022-08-18T00:16:20.457Z,3.00
2022-08-18T00:18:48.006Z,2.67
2022-08-18T00:21:15.552Z,2.90
2022-08-18T00:23:43.068Z,2.08
2022-08-18T00:26:10.674Z,2.70
2022-08-18T00:28:38.288Z,2.88
2022-08-18T00:31:07.539Z,1.90
2022-08-18T00:33:35.148Z,2.08
2022-08-18T00:36:02.667Z,2.75
2022-08-18T00:38:30.138Z,2.05
2022-08-18T00:40:57.750Z,2.40
2022-08-18T00:43:27.975Z,2.40
2022-08-18T00:45:55.554Z,2.65
2022-08-18T00:48:24.529Z,2.17
2022-08-18T00:50:54.690Z,2.38
2022-08-18T00:53:25.093Z,2.47
2022-08-18T00:55:54.405Z,2.90
2022-08-18T00:58:25.194Z,2.45
2022-08-18T01:00:53.084Z,2.75
2022-08-18T01:03:22.312Z,2.63
2022-08-18T01:05:56.393Z,2.90
2022-08-18T01:08:28.767Z,2.78
2022-08-18T01:10:57.421Z,3.28
2022-08-18T01:13:27.098Z,2.92
2022-08-18T01:15:54.621Z,3.30
2022-08-18T01:18:39.764Z,2.95
2022-08-18T01:21:29.772Z,2.95
2022-08-18T01:23:58.737Z,3.40
2022-08-18T01:26:26.952Z,3.50
2022-08-18T01:28:54.958Z,3.58
2022-08-18T01:31:35.061Z,3.50
2022-08-18T01:34:03.381Z,4.07
2022-08-18T01:36:30.954Z,3.50
2022-08-18T01:38:59.869Z,3.90
2022-08-18T01:41:30.747Z,4.15
2022-08-18T01:43:59.493Z,4.15
2022-08-18T01:46:27.664Z,4.20
2022-08-18T01:48:55.231Z,4.22
2022-08-18T01:51:38.272Z,4.72
2022-08-18T01:54:10.525Z,4.80
2022-08-18T01:56:38.126Z,4.68
2022-08-18T01:59:06.135Z,5.55
2022-08-18T02:01:36.662Z,5.55
2022-08-18T02:04:33.360Z,5.78
2022-08-18T02:06:55.902Z,4.97
2022-08-18T02:09:25.102Z,5.75
2022-08-18T02:11:55.940Z,5.43
2022-08-18T02:14:25.107Z,6.05
2022-08-18T02:17:00.981Z,6.13
2022-08-18T02:19:33.145Z,6.00
2022-08-18T02:22:00.639Z,6.47
2022-08-18T02:24:29.492Z,6.72
2022-08-18T02:26:57.228Z,6.38
2022-08-18T02:29:24.757Z,6.88
2022-08-18T02:31:52.491Z,7.05
2022-08-18T02:34:20.037Z,5.47
2022-08-18T02:36:47.639Z,6.93
2022-08-18T02:39:15.798Z,6.95
2022-08-18T02:41:44.732Z,6.80
2022-08-18T02:44:12.318Z,7.07
2022-08-18T02:46:40.167Z,6.40
2022-08-18T02:49:08.539Z,6.68
2022-08-18T02:51:36.213Z,6.38
2022-08-18T02:54:05.052Z,7.13
2022-08-18T02:56:41.430Z,7.32
2022-08-18T02:59:12.408Z,5.63
2022-08-18T03:01:42.400Z,6.68
2022-08-18T03:04:11.260Z,6.82
2022-08-18T03:06:39.467Z,6.70
2022-08-18T03:09:07.933Z,6.63
2022-08-18T03:11:35.467Z,7.40
2022-08-18T03:14:03.091Z,6.85
2022-08-18T03:16:33.034Z,7.40
2022-08-18T03:19:00.954Z,6.72
2022-08-18T03:21:30.213Z,7.45
2022-08-18T03:24:00.745Z,6.35
2022-08-18T03:26:30.003Z,6.78
2022-08-18T03:28:58.250Z,7.35
2022-08-18T03:31:27.943Z,7.50
2022-08-18T03:33:59.762Z,7.32
2022-08-18T03:36:29.111Z,7.45
2022-08-18T03:38:57.021Z,7.13
2022-08-18T03:41:57.365Z,6.72
2022-08-18T03:44:14.619Z,7.28
2022-08-18T03:46:42.470Z,6.53
2022-08-18T03:49:12.047Z,7.68
2022-08-18T03:51:39.640Z,7.00
2022-08-18T03:54:07.266Z,7.85
2022-08-18T03:56:36.334Z,8.35
2022-08-18T03:59:07.740Z,7.63
2022-08-18T04:01:39.256Z,7.32
2022-08-18T04:04:07.781Z,8.10
2022-08-18T04:06:39.306Z,7.38
2022-08-18T04:09:07.423Z,8.05
2022-08-18T04:11:37.124Z,8.50
2022-08-18T04:14:04.950Z,7.95
2022-08-18T04:16:33.123Z,7.07
2022-08-18T04:19:03.223Z,8.40
2022-08-18T04:21:32.896Z,8.23
2022-08-18T04:24:04.986Z,8.07
2022-08-18T04:26:32.978Z,7.25
2022-08-18T04:29:02.011Z,7.10
2022-08-18T04:31:29.997Z,7.50
2022-08-18T04:33:58.437Z,7.28
2022-08-18T04:36:26.669Z,7.78
2022-08-18T04:38:56.541Z,8.25
2022-08-18T04:41:27.417Z,8.05
2022-08-18T04:43:55.326Z,7.93
2022-08-18T04:46:24.190Z,8.13
2022-08-18T04:48:52.251Z,7.13
2022-08-18T04:52:26.585Z,7.72
2022-08-18T04:54:08.324Z,8.20
2022-08-18T04:56:38.934Z,7.97
2022-08-18T04:59:07.695Z,8.27
2022-08-18T05:01:36.655Z,7.82
2022-08-18T05:04:04.924Z,7.32
2022-08-18T05:06:32.994Z,8.52
2022-08-18T05:09:01.599Z,7.53
2022-08-18T05:11:33.347Z,8.13
2022-08-18T05:14:03.331Z,7.47
2022-08-18T05:16:32.095Z,8.50
2022-08-18T05:19:03.441Z,7.93
2022-08-18T05:21:33.928Z,7.75
2022-08-18T05:24:05.468Z,8.70
2022-08-18T05:26:33.533Z,7.88
2022-08-18T05:29:17.955Z,7.57
2022-08-18T05:31:47.525Z,8.95
2022-08-18T05:34:15.266Z,8.48
2022-08-18T05:36:51.008Z,8.60
2022-08-18T05:39:23.266Z,7.35
2022-08-18T05:41:52.884Z,8.05
2022-08-18T05:44:23.982Z,8.38
2022-08-18T05:46:53.257Z,9.60
2022-08-18T05:49:21.736Z,8.57
2022-08-18T05:51:50.569Z,9.07
2022-08-18T05:54:36.371Z,8.65
2022-08-18T05:57:06.447Z,8.85
2022-08-18T05:59:37.223Z,7.88
2022-08-18T06:02:07.737Z,8.50
2022-08-18T06:04:40.925Z,8.25
2022-08-18T06:07:10.404Z,8.15
2022-08-18T06:09:43.486Z,8.02
2022-08-18T06:12:14.529Z,9.55
2022-08-18T06:14:43.400Z,8.13
2022-08-18T06:17:17.561Z,9.35
2022-08-18T06:19:48.633Z,9.38
2022-08-18T06:22:20.947Z,8.13
2022-08-18T06:24:53.982Z,7.25
2022-08-18T06:27:25.561Z,8.75
2022-08-18T06:29:58.784Z,7.47
2022-08-18T06:32:34.274Z,6.35
2022-08-18T06:35:08.273Z,6.97
2022-08-18T06:37:57.402Z,6.93
2022-08-18T06:40:24.996Z,7.75
2022-08-18T06:42:52.453Z,6.63
2022-08-18T06:45:26.876Z,6.82
2022-08-18T06:48:15.666Z,6.40
2022-08-18T06:50:49.000Z,5.95
2022-08-18T06:53:18.879Z,5.88
2022-08-18T06:55:55.186Z,6.32
2022-08-18T06:58:25.581Z,5.13
2022-08-18T07:00:57.964Z,4.63
2022-08-18T07:03:40.627Z,4.60
2022-08-18T07:06:11.142Z,4.32
2022-08-18T07:08:40.154Z,4.78
2022-08-18T07:11:13.141Z,4.55
2022-08-18T07:13:42.274Z,4.60
2022-08-18T07:16:30.182Z,5.15
2022-08-18T07:19:08.092Z,4.30
2022-08-18T07:21:37.914Z,4.20
2022-08-18T07:24:24.165Z,4.13
2022-08-18T07:27:00.102Z,5.68
2022-08-18T07:29:28.079Z,5.20
2022-08-18T07:31:59.044Z,5.55
2022-08-18T07:34:29.497Z,4.50
2022-08-18T07:37:09.013Z,5.00
2022-08-18T07:39:39.803Z,4.95
2022-08-18T07:42:54.339Z,5.53
2022-08-18T07:45:07.368Z,4.60
2022-08-18T07:47:39.291Z,4.57
2022-08-18T07:50:27.277Z,4.60
2022-08-18T07:53:00.389Z,5.15
2022-08-18T07:55:29.827Z,4.78
2022-08-18T07:58:01.275Z,6.78
2022-08-18T08:00:57.731Z,6.68
2022-08-18T08:03:27.015Z,4.93
2022-08-18T08:05:57.547Z,4.57
2022-08-18T08:08:30.625Z,5.82
2022-08-18T08:11:06.133Z,5.35
2022-08-18T08:13:54.739Z,6.03
2022-08-18T08:16:27.128Z,5.70
2022-08-18T08:19:01.165Z,6.75
2022-08-18T08:21:33.121Z,6.68
2022-08-18T08:24:10.386Z,7.13
2022-08-18T08:26:47.918Z,5.10
2022-08-18T08:29:21.659Z,5.38
2022-08-18T08:31:51.902Z,5.78
2022-08-18T08:34:23.748Z,5.55
2022-08-18T08:36:54.141Z,5.50
2022-08-18T08:39:24.673Z,7.03
2022-08-18T08:42:28.920Z,5.38
2022-08-18T08:44:58.362Z,5.70
2022-08-18T08:47:30.073Z,6.63
2022-08-18T08:50:02.260Z,8.25
2022-08-18T08:52:31.719Z,6.53
2022-08-18T08:55:01.085Z,6.65
2022-08-18T08:57:32.267Z,7.20
2022-08-18T09:00:02.704Z,5.43
2022-08-18T09:02:49.866Z,5.88
2022-08-18T09:05:20.977Z,5.40
2022-08-18T09:08:03.103Z,4.53
2022-08-18T09:10:45.507Z,4.85
2022-08-18T09:13:29.125Z,5.78
2022-08-18T09:16:13.818Z,4.60
2022-08-18T09:18:49.500Z,5.75
2022-08-18T09:21:35.152Z,4.60
2022-08-18T09:24:10.776Z,4.88
2022-08-18T09:26:43.657Z,4.55
2022-08-18T09:29:16.424Z,5.85
2022-08-18T09:31:45.228Z,5.45
2022-08-18T09:34:23.112Z,5.63
2022-08-18T09:37:01.958Z,5.80
2022-08-18T09:39:54.505Z,5.53
2022-08-18T09:42:29.891Z,5.72
2022-08-18T09:44:59.386Z,5.00
2022-08-18T09:47:47.773Z,4.72
2022-08-18T09:50:38.635Z,4.82
2022-08-18T09:53:30.222Z,7.13
2022-08-18T09:58:58.681Z,4.20
2022-08-18T10:01:34.226Z,4.22
2022-08-18T10:04:29.297Z,4.28
2022-08-18T10:07:15.544Z,4.47
2022-08-18T10:09:47.823Z,7.68
2022-08-18T10:12:30.257Z,4.50
2022-08-18T10:15:09.743Z,4.10
2022-08-18T10:17:45.465Z,4.18
2022-08-18T10:20:26.689Z,4.35
2022-08-18T10:22:55.401Z,4.32
2022-08-18T10:25:34.469Z,4.95
2022-08-18T10:28:05.942Z,5.03
2022-08-18T10:31:06.306Z,4.15
2022-08-18T10:33:58.004Z,4.53
2022-08-18T10:36:37.725Z,4.60
2022-08-18T10:39:08.940Z,5.35
2022-08-18T10:41:50.307Z,4.53
2022-08-18T10:44:29.230Z,5.47
2022-08-18T10:46:59.323Z,4.47
2022-08-18T10:49:27.620Z,4.18
2022-08-18T10:52:06.397Z,4.47
2022-08-18T10:54:51.743Z,3.88
2022-08-18T10:57:25.609Z,4.78
2022-08-18T10:59:58.231Z,4.68
2022-08-18T11:02:38.205Z,4.68
2022-08-18T11:05:06.731Z,4.68
2022-08-18T11:10:58.289Z,4.68
2022-08-18T11:13:30.701Z,4.65
2022-08-18T11:16:04.316Z,4.75
2022-08-18T11:18:42.954Z,5.03
2022-08-18T11:21:23.775Z,4.55
2022-08-18T11:24:03.290Z,5.57
2022-08-18T11:26:31.076Z,5.45
2022-08-18T11:28:58.570Z,5.25
2022-08-18T11:31:26.141Z,5.75
2022-08-18T11:33:55.023Z,4.72
2022-08-18T11:36:30.412Z,4.93
2022-08-18T11:38:58.790Z,5.15
2022-08-18T11:41:33.114Z,5.28
2022-08-18T11:44:18.149Z,5.20
2022-08-18T11:49:34.816Z,5.10
2022-08-18T11:52:05.768Z,5.22
2022-08-18T11:54:36.536Z,4.50
2022-08-18T11:57:24.373Z,4.28
2022-08-18T12:00:00.485Z,4.95
2022-08-18T12:02:28.889Z,5.00
2022-08-18T12:05:08.479Z,4.93
2022-08-18T12:07:38.046Z,5.07
2022-08-18T12:13:05.662Z,5.20
2022-08-18T12:15:46.648Z,4.90
2022-08-18T12:18:18.769Z,4.85
2022-08-18T12:20:55.637Z,4.70
2022-08-18T12:23:25.105Z,4.82
2022-08-18T12:25:52.696Z,5.10
2022-08-18T12:28:22.245Z,4.60
2022-08-18T12:30:56.582Z,4.88
2022-08-18T12:36:15.824Z,4.90
2022-08-18T12:38:45.724Z,4.70
2022-08-18T12:41:23.741Z,4.70
2022-08-18T12:43:58.388Z,5.18
2022-08-18T12:46:27.389Z,4.28
2022-08-18T12:48:55.061Z,4.50
2022-08-18T12:51:30.546Z,5.28
2022-08-18T12:53:59.441Z,4.70
2022-08-18T12:56:30.218Z,5.20
2022-08-18T12:58:59.731Z,5.18
2022-08-18T13:01:27.523Z,5.22
2022-08-18T13:04:11.450Z,5.45
2022-08-18T13:06:58.757Z,4.78
2022-08-18T13:09:35.786Z,4.72
2022-08-18T13:12:18.409Z,4.20
2022-08-18T13:14:46.910Z,4.78
2022-08-18T13:17:33.451Z,4.38
2022-08-18T13:20:02.918Z,4.90
2022-08-18T13:22:33.314Z,5.53
2022-08-18T13:25:01.386Z,5.55
2022-08-18T13:27:33.509Z,4.50
2022-08-18T13:30:26.185Z,5.60
2022-08-18T13:32:59.390Z,4.97
2022-08-18T13:35:29.876Z,5.25
2022-08-18T13:38:14.558Z,4.60
2022-08-18T13:40:48.301Z,4.68
2022-08-18T13:43:17.455Z,4.45
2022-08-18T13:45:48.023Z,5.05
2022-08-18T13:48:20.679Z,4.30
2022-08-18T13:50:52.392Z,4.50
2022-08-18T13:53:22.401Z,4.22
2022-08-18T13:55:50.110Z,4.32
2022-08-18T13:58:20.854Z,5.00
2022-08-18T14:00:51.587Z,4.50
2022-08-18T14:03:20.386Z,4.35
2022-08-18T14:06:01.486Z,4.35
2022-08-18T14:08:31.032Z,4.50
2022-08-18T14:11:00.598Z,3.97
2022-08-18T14:13:28.643Z,4.00
2022-08-18T14:15:57.180Z,4.50
2022-08-18T14:18:29.192Z,4.35
2022-08-18T14:21:16.812Z,3.75
2022-08-18T14:24:10.562Z,4.60
2022-08-18T14:26:51.299Z,4.82
2022-08-18T14:29:45.766Z,4.63
2022-08-18T14:32:08.433Z,4.22
2022-08-18T14:34:36.795Z,4.30
2022-08-18T14:37:04.486Z,4.47
2022-08-18T14:39:38.779Z,4.45
2022-08-18T14:42:08.019Z,3.55
2022-08-18T14:44:39.708Z,4.50
2022-08-18T14:47:09.090Z,4.47
2022-08-18T14:49:47.854Z,4.38
2022-08-18T14:52:15.882Z,4.75
2022-08-18T14:54:51.078Z,4.68
2022-08-18T14:59:53.227Z,4.25
2022-08-18T15:02:24.828Z,3.90
2022-08-18T15:04:55.794Z,4.55
2022-08-18T15:07:25.331Z,4.15
2022-08-18T15:10:14.494Z,3.67
2022-08-18T15:12:55.163Z,4.68
2022-08-18T15:15:22.975Z,4.20
2022-08-18T15:17:53.047Z,4.47
2022-08-18T15:20:23.901Z,3.97
2022-08-18T15:23:14.299Z,4.45
2022-08-18T15:25:46.505Z,4.05
2022-08-18T15:28:20.075Z,4.40
2022-08-18T15:30:50.909Z,4.32
2022-08-18T15:33:22.002Z,4.78
2022-08-18T15:35:52.479Z,4.30
2022-08-18T15:38:20.957Z,7.03
2022-08-18T15:40:52.174Z,4.40
2022-08-18T15:43:30.317Z,4.47
2022-08-18T15:45:59.227Z,4.55
2022-08-18T15:48:28.186Z,5.13
2022-08-18T15:50:56.121Z,5.10
2022-08-18T15:53:29.769Z,5.45
2022-08-18T15:56:04.168Z,4.55
2022-08-18T15:58:31.757Z,4.75
2022-08-18T16:00:59.778Z,5.15
2022-08-18T16:03:28.135Z,6.35
2022-08-18T16:05:56.484Z,13.60
2022-08-18T16:08:25.460Z,5.50
2022-08-18T16:10:54.118Z,5.13
2022-08-18T16:13:23.273Z,5.13
2022-08-18T16:15:51.245Z,5.85
2022-08-18T16:18:20.228Z,4.80
2022-08-18T16:20:47.934Z,5.25
2022-08-18T16:23:18.130Z,5.85
2022-08-18T16:25:45.783Z,12.35
2022-08-18T16:28:13.608Z,11.52
2022-08-18T16:30:47.905Z,6.80
2022-08-18T16:33:15.407Z,5.78
2022-08-18T16:35:45.312Z,5.00
2022-08-18T16:38:14.840Z,5.32
2022-08-18T16:40:42.682Z,4.95
2022-08-18T16:43:10.465Z,4.82
2022-08-18T16:45:38.314Z,5.47
2022-08-18T16:48:08.327Z,6.38
2022-08-18T16:50:36.235Z,4.80
2022-08-18T16:53:04.733Z,5.28
2022-08-18T16:55:32.691Z,5.00
2022-08-18T16:58:17.560Z,4.90
2022-08-18T17:01:18.732Z,7.35
2022-08-18T17:04:13.444Z,5.57
2022-08-18T17:06:48.514Z,9.48
2022-08-18T17:09:16.189Z,10.82
2022-08-18T17:11:51.252Z,9.57
2022-08-18T17:14:19.787Z,9.48
2022-08-18T17:16:49.189Z,6.85
2022-08-18T17:19:18.625Z,7.35
2022-08-18T17:21:46.154Z,13.38
2022-08-18T17:24:14.579Z,7.47
2022-08-18T17:26:48.297Z,6.63
2022-08-18T17:29:19.788Z,8.30
2022-08-18T17:31:50.267Z,5.53
2022-08-18T17:34:20.610Z,5.85
2022-08-18T17:36:52.908Z,6.28
2022-08-18T17:39:24.265Z,8.38
2022-08-18T17:42:09.436Z,13.02
2022-08-18T17:44:42.361Z,9.73
2022-08-18T17:47:16.579Z,8.30
2022-08-18T17:50:26.772Z,6.88
2022-08-18T17:52:53.435Z,6.32
2022-08-18T17:55:23.561Z,5.82
2022-08-18T17:57:58.720Z,5.65
2022-08-18T18:00:26.478Z,7.30
2022-08-18T18:02:54.014Z,6.93
2022-08-18T18:05:23.154Z,7.82
2022-08-18T18:08:00.402Z,6.82
2022-08-18T18:10:30.139Z,6.35
2022-08-18T18:13:08.766Z,8.30
2022-08-18T18:15:39.928Z,5.55
2022-08-18T18:18:22.314Z,5.22
2022-08-18T18:20:59.052Z,8.00
2022-08-18T18:23:30.787Z,15.27
2022-08-18T18:25:58.378Z,20.17
2022-08-18T18:28:27.457Z,6.10
2022-08-18T18:30:58.773Z,8.57
2022-08-18T18:33:28.337Z,6.90
2022-08-18T18:35:58.165Z,8.35
2022-08-18T18:38:28.242Z,6.75
2022-08-18T18:40:57.508Z,6.60
2022-08-18T18:43:27.201Z,7.25
2022-08-18T18:46:01.885Z,6.88
2022-08-18T18:48:51.140Z,9.27
2022-08-18T18:51:33.594Z,9.10
2022-08-18T18:54:06.395Z,8.27
2022-08-18T18:56:37.187Z,10.10
2022-08-18T18:59:12.825Z,13.43
2022-08-18T19:01:44.763Z,13.68
2022-08-18T19:04:15.388Z,9.48
2022-08-18T19:06:47.055Z,8.82
2022-08-18T19:09:18.765Z,8.23
2022-08-18T19:11:53.697Z,9.30
2022-08-18T19:14:25.207Z,8.18
2022-08-18T19:16:54.973Z,13.57
2022-08-18T19:19:36.923Z,12.65
2022-08-18T19:22:08.596Z,8.52
2022-08-18T19:24:41.724Z,8.95
2022-08-18T19:27:13.663Z,7.72
2022-08-18T19:29:42.887Z,8.13
2022-08-18T19:32:16.425Z,10.40
2022-08-18T19:34:52.479Z,7.93
2022-08-18T19:37:31.055Z,8.32
2022-08-18T19:40:03.561Z,8.77
2022-08-18T19:42:35.229Z,15.18
2022-08-18T19:45:16.284Z,9.07
2022-08-18T19:47:48.365Z,13.77
2022-08-18T19:50:18.328Z,10.57
2022-08-18T19:52:53.924Z,13.32
2022-08-18T19:55:33.024Z,8.82
2022-08-18T19:58:07.134Z,7.53
2022-08-18T20:00:41.585Z,7.78
2022-08-18T20:03:33.372Z,7.90
2022-08-18T20:06:33.642Z,7.95
2022-08-18T20:09:10.664Z,8.07
2022-08-18T20:11:48.305Z,8.30
2022-08-18T20:14:19.156Z,7.25
2022-08-18T20:17:03.956Z,9.50
2022-08-18T20:19:42.714Z,7.18
2022-08-18T20:22:15.896Z,7.15
2022-08-18T20:24:46.544Z,7.18
2022-08-18T20:27:21.642Z,7.25
2022-08-18T20:29:49.912Z,8.18
2022-08-18T20:32:22.291Z,6.32
2022-08-18T20:34:51.932Z,7.13
2022-08-18T20:37:25.640Z,6.43
2022-08-18T20:39:58.291Z,5.88
2022-08-18T20:42:41.224Z,6.60
2022-08-18T20:45:15.276Z,6.95
2022-08-18T20:48:01.698Z,6.68
2022-08-18T20:50:42.775Z,7.22
2022-08-18T20:53:15.343Z,7.65
2022-08-18T20:55:49.224Z,6.80
2022-08-18T20:58:22.609Z,7.28
2022-08-18T21:00:53.109Z,7.00
2022-08-18T21:03:21.600Z,7.10
2022-08-18T21:05:50.612Z,7.55
2022-08-18T21:08:27.336Z,7.00
2022-08-18T21:10:56.247Z,7.75
2022-08-18T21:13:32.031Z,7.53
2022-08-18T21:16:03.341Z,7.68
2022-08-18T21:18:30.976Z,8.23
2022-08-18T21:20:59.855Z,8.43
2022-08-18T21:23:30.609Z,8.70
2022-08-18T21:25:59.630Z,8.80
2022-08-18T21:28:28.733Z,8.57
2022-08-18T21:31:41.514Z,9.63
2022-08-18T21:33:51.180Z,9.20
2022-08-18T21:36:20.109Z,9.27
2022-08-18T21:39:05.397Z,9.80
2022-08-18T21:41:34.618Z,10.05
2022-08-18T21:44:05.298Z,11.20
2022-08-18T21:46:33.282Z,10.45
2022-08-18T21:49:03.208Z,12.05
2022-08-18T21:51:32.598Z,10.50
2022-08-18T21:54:00.814Z,10.77
2022-08-18T21:56:29.264Z,11.27
2022-08-18T21:59:07.263Z,11.25
2022-08-18T22:01:35.765Z,11.55
2022-08-18T22:04:07.912Z,12.40
2022-08-18T22:06:40.295Z,12.23
2022-08-18T22:09:34.007Z,11.43
2022-08-18T22:12:36.130Z,13.30
2022-08-18T22:15:07.211Z,12.52
2022-08-18T22:17:42.026Z,12.65
2022-08-18T22:20:28.256Z,13.32
2022-08-18T22:23:19.248Z,14.77
2022-08-18T22:25:46.846Z,13.43
2022-08-18T22:28:14.841Z,15.00
2022-08-18T22:30:42.407Z,14.73
2022-08-18T22:33:09.965Z,14.70
2022-08-18T22:35:37.530Z,16.30
2022-08-18T22:38:06.650Z,15.50
2022-08-18T22:40:34.195Z,17.35
2022-08-18T22:43:01.706Z,16.40
2022-08-18T22:45:29.283Z,16.52
2022-08-18T22:47:57.237Z,17.40
2022-08-18T22:50:24.803Z,16.50
2022-08-18T22:52:52.519Z,18.48
2022-08-18T22:55:23.885Z,18.55
2022-08-18T22:57:54.792Z,18.30
2022-08-18T23:00:25.193Z,19.52
2022-08-18T23:02:53.204Z,18.25
2022-08-18T23:05:21.751Z,18.80
2022-08-18T23:07:49.827Z,18.75
2022-08-18T23:10:17.519Z,19.73
2022-08-18T23:12:48.013Z,20.42
2022-08-18T23:15:16.471Z,22.70
2022-08-18T23:17:44.464Z,20.08
2022-08-18T23:20:17.445Z,22.35
2022-08-18T23:22:46.922Z,22.30
2022-08-18T23:25:14.519Z,22.98
2022-08-18T23:27:42.487Z,22.98
2022-08-18T23:30:12.397Z,22.38
2022-08-18T23:32:39.937Z,21.45
2022-08-18T23:35:07.722Z,19.77
2022-08-18T23:37:35.315Z,20.83
2022-08-18T23:40:02.942Z,21.05
2022-08-18T23:42:31.540Z,20.10
2022-08-18T23:45:03.234Z,18.08
2022-08-18T23:47:32.213Z,18.02
2022-08-18T23:49:59.865Z,18.08
2022-08-18T23:52:27.406Z,18.27
2022-08-18T23:54:55.178Z,17.88
2022-08-18T23:57:22.723Z,18.17
2022-08-18T23:59:50.356Z,18.33
